Time;durP1;ratioP1;P1;durP2;ratioP2;P2;SDS_P1;SDS_P2;PMS_P1;PMS_P2;Temp;Humidity;BMP_temperature;BMP_pressure;BME280_temperature;BME280_humidity;BME280_pressure;Samples;Min_cycle;Max_cycle;Signal;HPM_P1;HPM_P2
2022/05/16 00:01:45;;;;;;;15.13;6.13;;;;;;;39.10;42.99;101126.56;5009233;28;20461;-76
2022/05/16 00:04:12;;;;;;;13.20;6.97;;;;;;;39.10;43.23;101118.41;5009308;28;20503;-75
2022/05/16 00:06:38;;;;;;;17.20;6.10;;;;;;;39.08;42.89;101114.38;5009281;28;20933;-76
2022/05/16 00:09:04;;;;;;;22.93;5.73;;;;;;;39.05;42.52;101120.44;5008996;28;20536;-76
2022/05/16 00:11:31;;;;;;;11.47;6.27;;;;;;;39.03;43.17;101115.31;5008892;28;20478;-76
2022/05/16 00:13:57;;;;;;;14.60;6.50;;;;;;;38.98;43.12;101115.44;4994128;28;20394;-77
2022/05/16 00:16:23;;;;;;;17.93;6.53;;;;;;;38.95;43.01;101097.84;4992500;28;20532;-76
2022/05/16 00:18:51;;;;;;;10.30;5.83;;;;;;;38.84;42.95;101107.34;5008883;28;20476;-76
2022/05/16 00:21:18;;;;;;;10.47;5.33;;;;;;;38.83;43.43;101110.38;5008830;28;20418;-76
2022/05/16 00:23:44;;;;;;;19.53;6.50;;;;;;;38.90;43.05;101121.59;4993821;28;20903;-75
2022/05/16 00:26:11;;;;;;;15.07;7.53;;;;;;;38.81;43.59;101126.94;4992477;28;20429;-76
2022/05/16 00:28:37;;;;;;;10.63;4.90;;;;;;;38.79;43.28;101118.28;4993739;28;20773;-76
2022/05/16 00:31:04;;;;;;;17.80;7.57;;;;;;;38.73;43.53;101127.66;4993774;28;20402;-76
2022/05/16 00:33:31;;;;;;;10.43;5.83;;;;;;;38.77;43.10;101125.16;5008398;28;20887;-76
2022/05/16 00:35:57;;;;;;;20.10;7.83;;;;;;;38.88;42.36;101127.31;4992280;28;20449;-76
2022/05/16 00:38:23;;;;;;;22.33;9.73;;;;;;;38.92;42.49;101124.81;4992284;28;20940;-76
2022/05/16 00:40:49;;;;;;;13.77;6.70;;;;;;;38.98;42.35;101123.59;4992363;28;20449;-76
2022/05/16 00:43:24;;;;;;;14.90;7.50;;;;;;;39.12;42.53;101126.22;4992067;28;20428;-75
2022/05/16 00:45:50;;;;;;;20.30;7.87;;;;;;;38.85;42.79;101113.56;4993420;28;20467;-76
2022/05/16 00:48:16;;;;;;;15.00;5.23;;;;;;;38.66;43.14;101111.78;5008184;28;20453;-76
2022/05/16 00:50:43;;;;;;;12.27;6.20;;;;;;;38.76;43.28;101104.56;5008290;28;20952;-74
2022/05/16 00:53:10;;;;;;;13.63;5.87;;;;;;;38.83;42.21;101119.28;4992058;28;20429;-77
2022/05/16 00:55:37;;;;;;;17.57;6.90;;;;;;;38.91;42.18;101115.03;5007400;28;20445;-76
2022/05/16 00:58:10;;;;;;;14.43;5.27;;;;;;;38.71;42.42;101116.28;5008237;28;20891;-77
2022/05/16 01:00:38;;;;;;;20.83;8.00;;;;;;;38.92;42.27;101113.97;4993262;28;20488;-75
2022/05/16 01:05:54;;;;;;;17.37;7.70;;;;;;;38.86;43.01;101110.56;4993044;28;20388;-75
2022/05/16 01:08:24;;;;;;;20.60;6.97;;;;;;;39.04;42.67;101100.66;5008042;28;20484;-75
2022/05/16 01:10:54;;;;;;;15.37;7.00;;;;;;;38.92;42.81;101095.78;4991366;28;20524;-74
2022/05/16 01:13:30;;;;;;;15.53;6.37;;;;;;;38.88;42.83;101091.28;5007930;28;20444;-75
2022/05/16 01:15:58;;;;;;;26.13;7.73;;;;;;;38.84;43.17;101091.06;4991676;28;20425;-74
2022/05/16 01:18:25;;;;;;;8.77;5.37;;;;;;;38.90;42.58;101091.75;4992661;28;20492;-73
2022/05/16 01:21:09;;;;;;;13.70;5.67;;;;;;;38.66;43.13;101092.78;4992900;28;20398;-74
2022/05/16 01:24:16;;;;;;;13.23;5.87;;;;;;;38.73;43.34;101073.44;5007812;28;20540;-74
2022/05/16 01:26:43;;;;;;;19.30;6.43;;;;;;;38.59;43.56;101076.16;5007802;28;20817;-74
2022/05/16 01:29:10;;;;;;;12.47;5.27;;;;;;;38.87;43.09;101071.47;5008018;28;20460;-74
2022/05/16 01:31:37;;;;;;;19.47;6.50;;;;;;;39.01;42.81;101074.13;5007745;28;20425;-74
2022/05/16 01:34:03;;;;;;;25.17;8.17;;;;;;;38.92;42.83;101067.84;4991348;28;20774;-77
2022/05/16 01:36:30;;;;;;;10.53;5.90;;;;;;;38.78;43.10;101069.81;5007901;28;20421;-76
2022/05/16 01:38:56;;;;;;;18.37;6.23;;;;;;;38.67;43.42;101061.06;4992723;28;20524;-77
2022/05/16 01:41:25;;;;;;;12.20;6.03;;;;;;;38.61;43.45;101059.56;5007667;28;20432;-76
2022/05/16 01:43:56;;;;;;;15.87;5.80;;;;;;;38.62;43.63;101058.50;4991126;28;21158;-76
2022/05/16 01:46:26;;;;;;;18.30;8.80;;;;;;;38.62;43.43;101053.88;4975012;28;20500;-76
2022/05/16 01:48:53;;;;;;;15.30;5.67;;;;;;;38.64;43.25;101058.97;4992507;28;20409;-77
2022/05/16 01:51:20;;;;;;;20.03;7.40;;;;;;;38.70;43.12;101063.97;4991201;28;20523;-76
2022/05/16 01:53:46;;;;;;;19.33;7.27;;;;;;;38.94;42.73;101046.63;5007494;28;20417;-76
2022/05/16 01:56:13;;;;;;;9.73;5.50;;;;;;;39.03;42.39;101050.19;5007553;28;20429;-76
2022/05/16 01:58:41;;;;;;;17.00;6.10;;;;;;;38.90;42.74;101045.66;5007451;28;20525;-76
2022/05/16 02:01:08;;;;;;;12.73;6.03;;;;;;;38.96;42.44;101041.69;5007482;28;20980;-77
2022/05/16 02:03:39;;;;;;;17.57;7.67;;;;;;;39.01;42.12;101036.16;5007331;28;20857;-76
2022/05/16 02:06:05;;;;;;;19.23;5.93;;;;;;;38.93;42.33;101040.41;4992337;28;20432;-75
2022/05/16 02:08:31;;;;;;;23.40;6.73;;;;;;;38.93;42.65;101040.41;4996259;28;20397;-74
2022/05/16 02:10:57;;;;;;;18.13;7.40;;;;;;;39.09;42.79;101038.09;5011059;28;20512;-74
2022/05/16 02:13:23;;;;;;;16.20;5.83;;;;;;;39.06;42.79;101035.22;5011351;28;20417;-75
2022/05/16 02:15:49;;;;;;;20.47;9.50;;;;;;;39.06;42.71;101041.44;5011308;28;20425;-74
2022/05/16 02:18:15;;;;;;;15.80;7.00;;;;;;;39.05;42.80;101039.06;4994868;28;20433;-76
2022/05/16 02:20:41;;;;;;;20.33;5.93;;;;;;;39.04;42.93;101040.97;4994842;28;20425;-74
2022/05/16 02:25:54;;;;;;;20.90;8.20;;;;;;;39.13;42.66;101044.53;4996392;28;20408;-75
2022/05/16 02:28:21;;;;;;;20.27;7.60;;;;;;;39.07;42.34;101043.06;5010959;28;20516;-76
2022/05/16 02:30:48;;;;;;;15.20;8.20;;;;;;;39.00;42.43;101042.69;4996068;28;20400;-76
2022/05/16 02:33:16;;;;;;;16.00;7.40;;;;;;;39.11;42.14;101040.53;5011011;28;20425;-77
2022/05/16 02:35:44;;;;;;;16.10;5.97;;;;;;;39.17;42.05;101040.13;5010855;28;20937;-76
2022/05/16 02:38:12;;;;;;;13.90;6.90;;;;;;;39.09;42.24;101048.97;4995891;28;20405;-75
2022/05/16 02:40:38;;;;;;;19.43;8.80;;;;;;;39.12;42.42;101051.06;5010993;28;20444;-74
2022/05/16 02:43:04;;;;;;;15.07;6.57;;;;;;;39.00;41.97;101055.47;4994306;28;20428;-77
2022/05/16 02:45:31;;;;;;;20.37;6.40;;;;;;;38.94;42.02;101043.94;5010793;28;20417;-75
2022/05/16 02:47:58;;;;;;;11.70;5.90;;;;;;;39.05;41.68;101037.16;4995571;28;20808;-76
2022/05/16 02:50:25;;;;;;;8.57;5.83;;;;;;;38.92;42.52;101043.44;5010542;28;20528;-76
2022/05/16 02:52:55;;;;;;;18.63;7.07;;;;;;;38.91;42.34;101030.97;5010541;28;20445;-74
2022/05/16 02:55:22;;;;;;;15.50;5.77;;;;;;;38.90;42.41;101035.59;5010532;28;20508;-75
2022/05/16 02:57:48;;;;;;;17.20;5.73;;;;;;;38.92;41.91;101027.97;4995557;28;20397;-75
2022/05/16 03:00:16;;;;;;;13.77;4.93;;;;;;;39.05;42.11;101015.44;5010456;28;20413;-75
2022/05/16 03:02:42;;;;;;;13.37;7.47;;;;;;;38.70;42.82;101009.75;5010297;28;20448;-74
2022/05/16 03:05:10;;;;;;;14.93;8.50;;;;;;;38.73;42.94;101007.56;5010283;28;20475;-74
2022/05/16 03:07:37;;;;;;;19.90;6.83;;;;;;;38.77;42.53;101003.94;4995418;28;20492;-77
2022/05/16 03:10:04;;;;;;;16.60;5.17;;;;;;;38.70;42.66;101015.16;5009741;28;20445;-76
2022/05/16 03:12:31;;;;;;;18.23;7.70;;;;;;;38.45;43.49;101013.06;4995171;28;20787;-76
2022/05/16 03:14:57;;;;;;;28.90;9.50;;;;;;;38.51;43.15;101005.63;5010277;28;20417;-77
2022/05/16 03:17:23;;;;;;;16.13;6.23;;;;;;;38.58;42.85;101012.22;5009097;28;20551;-75
2022/05/16 03:19:50;;;;;;;12.57;6.67;;;;;;;38.47;43.04;101002.72;5010194;28;20512;-74
2022/05/16 03:22:17;;;;;;;12.73;6.33;;;;;;;38.47;43.31;101010.03;4995027;28;20500;-75
2022/05/16 03:24:43;;;;;;;19.40;7.10;;;;;;;38.43;43.16;101010.66;4993496;28;20477;-76
2022/05/16 03:27:09;;;;;;;18.10;7.67;;;;;;;38.43;43.38;101004.44;5009965;28;20523;-75
2022/05/16 03:29:36;;;;;;;19.37;6.63;;;;;;;38.47;43.06;101005.41;4993662;28;20429;-76
2022/05/16 03:32:02;;;;;;;19.30;7.00;;;;;;;38.55;42.95;101007.41;5009748;28;20432;-76
2022/05/16 03:34:29;;;;;;;10.90;5.87;;;;;;;38.55;42.55;100996.56;5009751;28;20453;-74
2022/05/16 03:36:55;;;;;;;14.20;5.83;;;;;;;38.52;42.69;101001.78;4994847;28;20418;-75
2022/05/16 03:42:06;;;;;;;15.13;5.90;;;;;;;38.57;42.37;100998.97;4994681;28;20401;-76
2022/05/16 03:44:32;;;;;;;13.87;6.50;;;;;;;38.70;42.49;101001.63;4993033;28;20467;-75
2022/05/16 03:46:59;;;;;;;16.57;6.40;;;;;;;38.57;43.12;100991.63;5009607;28;20442;-75
2022/05/16 03:49:25;;;;;;;13.07;5.20;;;;;;;38.60;43.19;100998.34;4994358;28;20778;-75
2022/05/16 03:51:51;;;;;;;17.63;7.40;;;;;;;38.59;42.95;100992.13;5009456;28;20433;-75
2022/05/16 03:54:19;;;;;;;15.30;5.87;;;;;;;38.65;42.27;100996.31;5009851;28;20426;-75
2022/05/16 03:56:45;;;;;;;19.03;7.23;;;;;;;38.57;42.95;100994.34;5009424;28;20488;-75
2022/05/16 03:59:11;;;;;;;16.97;6.40;;;;;;;38.56;42.94;101000.88;5009335;28;20431;-75
2022/05/16 04:01:39;;;;;;;10.83;5.40;;;;;;;38.57;42.88;101002.47;5009263;28;20422;-74
2022/05/16 04:04:05;;;;;;;14.60;6.10;;;;;;;38.75;42.43;100999.94;5009145;28;20472;-74
2022/05/16 04:06:34;;;;;;;17.53;7.80;;;;;;;38.74;42.64;100999.13;4992821;28;20429;-77
2022/05/16 04:09:01;;;;;;;23.57;9.23;;;;;;;38.79;42.92;100988.13;5009194;28;20445;-76
2022/05/16 04:11:27;;;;;;;22.13;8.50;;;;;;;38.83;42.52;100981.00;4992522;28;20489;-76
2022/05/16 04:13:53;;;;;;;21.33;7.73;;;;;;;38.76;42.65;100987.97;5009094;28;20421;-77
2022/05/16 04:16:19;;;;;;;12.97;7.17;;;;;;;38.74;42.53;100985.56;5009020;28;20571;-76
2022/05/16 04:18:46;;;;;;;12.00;6.63;;;;;;;38.72;42.77;100978.84;4993979;28;20467;-76
2022/05/16 04:21:12;;;;;;;21.67;8.37;;;;;;;38.76;42.88;100987.97;5008914;28;20437;-76
2022/05/16 04:23:39;;;;;;;14.00;7.80;;;;;;;38.77;42.99;100993.06;4992471;28;20492;-77
2022/05/16 04:26:05;;;;;;;17.03;8.33;;;;;;;38.76;43.04;100990.69;5008868;28;20933;-75
2022/05/16 04:28:31;;;;;;;16.63;6.30;;;;;;;38.78;43.05;100991.16;4992373;28;20440;-74
2022/05/16 04:30:57;;;;;;;13.60;6.30;;;;;;;38.68;42.86;100976.72;5008826;28;20421;-77
2022/05/16 04:33:23;;;;;;;15.00;7.67;;;;;;;38.58;43.13;100971.53;4993664;28;20552;-77
2022/05/16 04:35:49;;;;;;;26.53;11.23;;;;;;;38.54;43.17;100970.56;4992263;28;20907;-76
2022/05/16 04:38:15;;;;;;;25.70;8.73;;;;;;;38.47;43.13;100975.59;4993632;28;20435;-76
2022/05/16 04:43:26;;;;;;;15.27;7.43;;;;;;;38.64;43.27;100977.66;4993655;28;20813;-74
2022/05/16 04:45:52;;;;;;;12.00;6.23;;;;;;;38.61;43.23;100965.53;5008499;28;20425;-75
2022/05/16 04:48:18;;;;;;;15.40;7.03;;;;;;;38.64;42.96;100977.66;5008537;28;20564;-75
2022/05/16 04:50:45;;;;;;;19.67;7.63;;;;;;;38.71;42.88;100986.16;5008349;28;20425;-74
2022/05/16 04:53:11;;;;;;;17.40;6.73;;;;;;;38.71;42.52;100988.84;5008116;28;20987;-75
2022/05/16 04:55:37;;;;;;;10.00;5.77;;;;;;;38.58;43.04;100995.94;5008415;28;20422;-75
2022/05/16 04:58:03;;;;;;;19.53;6.47;;;;;;;38.38;43.56;101001.84;5008445;28;20425;-76
2022/05/16 05:00:29;;;;;;;11.70;8.00;;;;;;;38.17;44.52;101004.97;4991933;28;20433;-77
2022/05/16 05:02:57;;;;;;;13.73;7.27;;;;;;;38.18;44.29;101003.06;4993494;28;20417;-75
2022/05/16 05:05:23;;;;;;;14.27;11.07;;;;;;;38.00;45.61;101012.94;4991683;28;20464;-75
2022/05/16 05:07:49;;;;;;;23.33;11.30;;;;;;;38.06;45.31;101017.16;4993167;28;20405;-75
2022/05/16 05:15:49;;;;;;;23.27;14.77;;;;;;;37.72;46.05;101022.16;4993266;28;20400;-77
2022/05/16 05:18:15;;;;;;;19.23;14.30;;;;;;;37.75;46.44;101016.13;5007774;28;20456;-76
2022/05/16 05:20:42;;;;;;;21.13;13.40;;;;;;;37.53;46.65;101014.13;4991617;28;20429;-77
2022/05/16 05:23:08;;;;;;;22.80;15.90;;;;;;;37.49;47.03;101023.94;4991537;28;20529;-75
2022/05/16 05:25:34;;;;;;;26.63;20.47;;;;;;;37.51;47.06;101016.31;5007659;28;20925;-76
2022/05/16 05:28:02;;;;;;;32.23;17.00;;;;;;;37.68;46.49;101026.53;5007566;28;20448;-74
2022/05/16 05:30:30;;;;;;;26.70;16.93;;;;;;;37.38;47.49;101026.84;4991996;28;20996;-74
2022/05/16 05:32:57;;;;;;;27.77;18.63;;;;;;;37.46;47.60;101029.94;4992704;28;20425;-74
2022/05/16 05:35:25;;;;;;;22.57;14.97;;;;;;;37.16;47.94;101042.06;4991193;28;20835;-74
2022/05/16 05:37:55;;;;;;;31.83;16.40;;;;;;;37.20;48.16;101037.66;5007923;28;20426;-72
2022/05/16 05:40:21;;;;;;;20.63;12.93;;;;;;;37.25;47.57;101032.16;4990960;28;20437;-75
2022/05/16 05:42:47;;;;;;;36.47;15.93;;;;;;;37.40;47.13;101037.34;4991157;28;20428;-75
2022/05/16 05:45:14;;;;;;;34.60;16.20;;;;;;;37.36;47.28;101036.34;4991031;28;20469;-74
2022/05/16 05:47:40;;;;;;;27.27;15.00;;;;;;;37.41;47.61;101041.66;4991128;28;20506;-74
2022/05/16 05:50:07;;;;;;;20.90;15.10;;;;;;;37.41;46.99;101052.47;4990956;28;20449;-73
2022/05/16 05:52:35;;;;;;;34.50;14.20;;;;;;;37.44;47.50;101056.50;4991173;28;20435;-75
2022/05/16 05:55:02;;;;;;;33.60;15.83;;;;;;;37.38;47.32;101064.72;4991022;28;20437;-75
2022/05/16 05:57:28;;;;;;;36.37;15.80;;;;;;;37.56;47.07;101062.22;4991039;28;20445;-72
2022/05/16 05:59:55;;;;;;;25.67;15.50;;;;;;;37.41;47.49;101066.00;4992530;28;20405;-72
2022/05/16 06:02:21;;;;;;;23.27;16.80;;;;;;;37.62;47.00;101066.44;4990981;28;20448;-72
2022/05/16 06:04:48;;;;;;;24.27;16.00;;;;;;;37.74;46.49;101071.38;4990301;28;20973;-74
2022/05/16 06:07:15;;;;;;;40.20;22.67;;;;;;;37.81;46.64;101071.78;4991042;28;20425;-71
2022/05/16 06:09:41;;;;;;;40.63;22.23;;;;;;;37.84;46.79;101079.34;4990464;28;20466;-73
2022/05/16 06:12:08;;;;;;;57.93;27.37;;;;;;;37.75;46.90;101086.50;4990886;28;20484;-73
2022/05/16 06:14:35;;;;;;;40.17;24.43;;;;;;;37.76;46.91;101094.34;5005239;28;20475;-69
2022/05/16 06:17:01;;;;;;;45.73;23.37;;;;;;;37.75;46.96;101089.22;4990502;28;20434;-71
2022/05/16 06:19:27;;;;;;;34.53;23.43;;;;;;;37.74;46.99;101091.13;4990074;28;20418;-74
2022/05/16 06:21:54;;;;;;;43.17;28.50;;;;;;;37.80;46.52;101097.25;5007205;28;21342;-71
2022/05/16 06:27:05;;;;;;;51.93;34.90;;;;;;;37.73;47.27;101083.31;4990778;28;20823;-71
2022/05/16 06:29:31;;;;;;;37.07;26.60;;;;;;;37.71;46.78;101078.19;4990743;28;20429;-72
2022/05/16 06:31:57;;;;;;;34.70;22.30;;;;;;;37.86;46.70;101077.91;5006019;28;20432;-72
2022/05/16 06:34:23;;;;;;;27.67;16.37;;;;;;;38.08;45.89;101074.50;4990377;28;20426;-72
2022/05/16 06:36:49;;;;;;;34.83;16.40;;;;;;;38.24;45.57;101082.31;4989751;28;20434;-73
2022/05/16 06:39:15;;;;;;;24.30;13.90;;;;;;;38.50;44.95;101085.34;4990636;28;20436;-73
2022/05/16 06:42:23;;;;;;;26.10;16.37;;;;;;;38.51;44.78;101089.66;4990293;28;20536;-74
2022/05/16 06:44:48;;;;;;;29.10;16.00;;;;;;;38.44;45.07;101087.34;4975510;28;20468;-74
2022/05/16 06:48:01;;;;;;;21.43;13.57;;;;;;;38.47;45.29;101096.78;5004772;28;20858;-74
2022/05/16 06:50:28;;;;;;;29.50;17.03;;;;;;;38.53;44.92;101099.06;4986914;28;20840;-74
2022/05/16 06:52:57;;;;;;;46.53;19.83;;;;;;;38.32;45.52;101104.13;5005691;28;20433;-74
2022/05/16 06:55:24;;;;;;;36.03;16.37;;;;;;;38.43;45.27;101116.38;5008619;28;20452;-74
2022/05/16 06:57:50;;;;;;;35.40;14.83;;;;;;;38.42;45.35;101122.06;4976414;28;20941;-73
2022/05/16 07:00:19;;;;;;;29.70;13.87;;;;;;;38.49;44.98;101124.34;4995077;28;20950;-71
2022/05/16 07:02:57;;;;;;;22.20;14.10;;;;;;;38.55;45.07;101129.41;4993590;28;20440;-74
2022/05/16 07:05:23;;;;;;;27.40;12.33;;;;;;;38.57;45.04;101138.00;4987760;28;20471;-74
2022/05/16 07:07:49;;;;;;;25.57;13.63;;;;;;;38.56;45.13;101143.75;4993609;28;20429;-73
2022/05/16 07:10:15;;;;;;;31.03;12.80;;;;;;;38.51;45.21;101155.50;4993596;28;20556;-71
2022/05/16 07:12:41;;;;;;;24.13;9.73;;;;;;;38.59;44.93;101160.19;5010286;28;20903;-71
2022/05/16 07:15:08;;;;;;;20.63;11.30;;;;;;;38.62;45.13;101166.94;5010219;28;20413;-72
2022/05/16 07:17:34;;;;;;;25.07;10.40;;;;;;;38.70;44.97;101168.91;4994781;28;20453;-72
2022/05/16 07:20:00;;;;;;;30.53;14.17;;;;;;;38.69;44.84;101186.28;4994062;28;20502;-74
2022/05/16 07:22:26;;;;;;;20.90;10.70;;;;;;;38.55;45.08;101186.31;4993555;28;20492;-74
2022/05/16 07:24:55;;;;;;;23.87;12.27;;;;;;;38.48;45.41;101185.09;4993337;28;20461;-73
2022/05/16 07:30:08;;;;;;;17.37;9.70;;;;;;;38.56;45.31;101193.34;4993683;28;20432;-73
2022/05/16 07:32:43;;;;;;;24.20;11.17;;;;;;;38.55;45.20;101190.91;4993388;28;20414;-74
2022/05/16 07:35:13;;;;;;;37.23;10.00;;;;;;;38.62;45.13;101194.03;5008187;28;20813;-73
2022/05/16 07:37:40;;;;;;;31.37;12.37;;;;;;;38.62;45.17;101188.63;4991652;28;20993;-73
2022/05/16 07:40:09;;;;;;;24.20;11.83;;;;;;;38.58;45.52;101198.44;4993534;28;20508;-73
2022/05/16 07:42:35;;;;;;;31.03;12.60;;;;;;;38.42;45.99;101195.25;5009708;28;20431;-73
2022/05/16 07:45:03;;;;;;;19.27;9.80;;;;;;;38.47;45.87;101205.97;4993049;28;20477;-72
2022/05/16 07:47:30;;;;;;;24.27;11.60;;;;;;;38.54;46.08;101202.88;5008973;28;20453;-72
2022/05/16 07:49:57;;;;;;;21.00;10.37;;;;;;;38.53;45.65;101212.09;5008324;28;20468;-72
2022/05/16 07:52:23;;;;;;;19.27;8.83;;;;;;;38.53;46.02;101206.69;5005795;28;20453;-72
2022/05/16 07:54:50;;;;;;;18.30;8.87;;;;;;;38.83;45.43;101216.94;4993195;28;20840;-70
2022/05/16 07:57:17;;;;;;;24.07;9.30;;;;;;;38.94;45.34;101221.03;4993075;28;20414;-71
2022/05/16 07:59:44;;;;;;;23.47;8.77;;;;;;;39.04;45.37;101220.00;5008447;28;20858;-70
2022/05/16 08:02:12;;;;;;;16.20;9.63;;;;;;;38.94;45.10;101226.44;4993013;28;20417;-71
2022/05/16 08:04:38;;;;;;;20.20;9.90;;;;;;;38.86;45.29;101237.22;5007910;28;20464;-68
2022/05/16 08:07:04;;;;;;;22.43;10.13;;;;;;;39.13;44.57;101239.88;4992922;28;20425;-71
2022/05/16 08:12:27;;;;;;;32.97;13.63;;;;;;;39.10;44.99;101248.63;4992749;28;20417;-71
2022/05/16 08:14:54;;;;;;;20.77;9.43;;;;;;;39.25;44.63;101244.00;4990772;28;20445;-72
2022/05/16 08:17:22;;;;;;;24.83;9.03;;;;;;;39.12;44.83;101243.69;4992260;28;20414;-72
2022/05/16 08:19:48;;;;;;;21.80;9.87;;;;;;;39.05;44.94;101242.53;5007109;28;20429;-71
2022/05/16 08:22:16;;;;;;;26.50;11.13;;;;;;;39.21;44.82;101250.03;4990915;28;20397;-71
2022/05/16 08:24:42;;;;;;;25.37;11.07;;;;;;;38.94;45.46;101253.56;4990596;28;20989;-72
2022/05/16 08:27:08;;;;;;;15.30;8.67;;;;;;;39.08;45.15;101252.75;5006987;28;20491;-72
2022/05/16 08:29:34;;;;;;;27.60;9.13;;;;;;;39.22;44.93;101259.75;5008175;28;20429;-70
2022/05/16 08:32:03;;;;;;;17.83;10.17;;;;;;;39.18;44.79;101256.06;5008096;28;20433;-70
2022/05/16 08:34:30;;;;;;;17.40;9.77;;;;;;;39.06;44.89;101254.97;4992386;28;20432;-70
2022/05/16 08:39:52;;;;;;;22.93;10.00;;;;;;;39.22;44.65;101258.97;4993520;28;20576;-69
2022/05/16 08:42:23;;;;;;;15.17;8.40;;;;;;;39.13;43.38;101267.00;4977722;28;20969;-69
2022/05/16 08:44:56;;;;;;;13.13;7.47;;;;;;;38.98;42.90;101259.22;4992192;28;20499;-69
2022/05/16 08:47:43;;;;;;;16.40;7.80;;;;;;;39.06;44.25;101266.63;4993369;28;20449;-70
2022/05/16 08:50:18;;;;;;;16.40;6.20;;;;;;;39.22;42.60;101265.19;4993669;28;20495;-70
2022/05/16 08:52:57;;;;;;;14.00;7.93;;;;;;;39.16;42.33;101271.84;5008518;28;20512;-71
2022/05/16 08:55:41;;;;;;;29.33;9.67;;;;;;;39.23;42.18;101276.88;4993245;28;20404;-69
2022/05/16 08:58:20;;;;;;;13.00;6.33;;;;;;;39.14;41.60;101274.03;5008260;28;20469;-69
2022/05/16 09:00:54;;;;;;;11.93;6.23;;;;;;;39.13;42.37;101275.16;4993117;28;20449;-70
2022/05/16 09:03:35;;;;;;;17.47;6.77;;;;;;;39.22;41.73;101272.53;5008091;28;20771;-70
2022/05/16 09:06:13;;;;;;;16.87;6.90;;;;;;;39.37;41.85;101272.19;5008251;28;20512;-69
2022/05/16 09:08:57;;;;;;;14.10;9.10;;;;;;;39.44;41.47;101269.84;4992005;28;20449;-70
2022/05/16 09:11:27;;;;;;;16.70;7.57;;;;;;;39.32;40.92;101266.09;5007845;28;20501;-72
2022/05/16 09:14:35;;;;;;;10.73;5.17;;;;;;;39.48;40.48;101268.16;5008111;28;20417;-69
2022/05/16 09:17:02;;;;;;;10.77;6.73;;;;;;;39.47;40.83;101263.00;4985304;28;20457;-70
2022/05/16 09:19:50;;;;;;;20.03;7.27;;;;;;;39.46;40.08;101264.91;5007983;28;20508;-71
2022/05/16 09:22:33;;;;;;;12.30;6.57;;;;;;;39.56;41.02;101258.44;5007974;28;20435;-72
2022/05/16 09:25:08;;;;;;;13.83;5.77;;;;;;;39.59;40.39;101265.97;4992654;28;20472;-73
2022/05/16 09:30:24;;;;;;;13.70;5.87;;;;;;;39.49;40.94;101258.09;4989296;28;20432;-69
2022/05/16 09:33:01;;;;;;;11.40;6.53;;;;;;;39.41;41.07;101264.22;5013138;22;20499;-68
2022/05/16 09:35:41;;;;;;;12.20;5.90;;;;;;;39.52;41.37;101262.88;5024534;28;20574;-68
2022/05/16 09:38:07;;;;;;;18.03;6.57;;;;;;;39.45;41.62;101257.09;5001168;28;20432;-69
2022/05/16 09:54:18;;;;;;;12.70;6.03;;;;;;;37.42;47.91;101267.84;5161063;27;20478;-68
2022/05/16 09:57:12;;;;;;;15.03;8.07;;;;;;;38.59;44.45;101259.69;5130837;27;20460;-67
2022/05/16 09:59:47;;;;;;;13.00;4.70;;;;;;;38.95;43.46;101265.22;5128037;27;20441;-66
2022/05/16 10:02:28;;;;;;;20.00;6.73;;;;;;;39.13;42.70;101267.00;5144724;27;20457;-66
2022/05/16 10:05:01;;;;;;;16.90;6.50;;;;;;;39.32;42.72;101261.44;5145202;27;20406;-68
2022/05/16 10:07:40;;;;;;;14.00;7.67;;;;;;;39.49;42.35;101263.53;5119353;22;20492;-66
2022/05/16 10:10:09;;;;;;;23.30;9.73;;;;;;;39.30;41.80;101258.25;5056110;28;20915;-66
2022/05/16 10:12:36;;;;;;;14.77;7.53;;;;;;;39.45;42.57;101259.81;5057246;28;20473;-67
2022/05/16 10:15:02;;;;;;;15.53;5.93;;;;;;;39.53;41.94;101258.25;5057604;28;20929;-69
2022/05/16 10:17:37;;;;;;;21.03;7.97;;;;;;;39.55;41.64;101265.00;5057341;28;20472;-67
2022/05/16 10:20:20;;;;;;;14.53;7.00;;;;;;;39.70;41.29;101270.09;5039871;28;20495;-67
2022/05/16 10:22:47;;;;;;;12.30;6.60;;;;;;;39.61;41.16;101258.38;5057228;28;20800;-67
2022/05/16 10:25:19;;;;;;;8.77;4.57;;;;;;;39.65;40.73;101264.78;5039705;28;20637;-68
2022/05/16 10:27:48;;;;;;;13.23;6.07;;;;;;;39.73;39.97;101255.09;5056994;28;20414;-69
2022/05/16 10:30:21;;;;;;;13.87;5.13;;;;;;;39.79;40.24;101259.28;5055143;28;20450;-67
2022/05/16 10:33:26;;;;;;;13.80;6.60;;;;;;;39.76;40.36;101262.59;5050639;28;20458;-67
2022/05/16 10:36:07;;;;;;;12.07;4.90;;;;;;;39.73;39.85;101260.53;5061026;28;20422;-67
2022/05/16 10:38:48;;;;;;;8.93;4.47;;;;;;;39.67;40.29;101254.41;5028666;28;20430;-67
2022/05/16 10:41:23;;;;;;;8.90;4.50;;;;;;;39.71;40.34;101247.25;5047179;28;20473;-67
2022/05/16 10:44:01;;;;;;;13.73;5.40;;;;;;;39.74;40.46;101237.69;5031355;28;20415;-70
2022/05/16 10:46:31;;;;;;;14.90;5.87;;;;;;;39.74;40.31;101237.69;5053218;28;20804;-68
2022/05/16 10:49:19;;;;;;;11.03;6.07;;;;;;;39.71;40.83;101228.22;5052313;28;20454;-68
2022/05/16 10:52:37;;;;;;;13.07;6.57;;;;;;;39.82;40.66;101233.41;5036705;28;20427;-68
2022/05/16 10:55:04;;;;;;;17.70;7.93;;;;;;;39.75;40.89;101231.94;5050856;28;20444;-68
2022/05/16 10:58:27;;;;;;;12.93;7.30;;;;;;;39.86;40.35;101235.19;5054713;28;20426;-69
2022/05/16 11:01:16;;;;;;;19.20;8.13;;;;;;;39.83;40.67;101230.38;5028940;28;20429;-69
2022/05/16 11:04:31;;;;;;;12.20;6.50;;;;;;;39.90;40.83;101224.50;5033156;28;20527;-68
2022/05/16 11:07:20;;;;;;;16.13;7.77;;;;;;;39.89;40.61;101225.63;5038509;28;20416;-69
2022/05/16 11:10:28;;;;;;;10.27;5.13;;;;;;;39.94;39.88;101220.84;5040879;28;20825;-69
2022/05/16 11:13:05;;;;;;;16.80;5.50;;;;;;;39.95;40.56;101217.03;5010718;28;20554;-69
2022/05/16 11:15:41;;;;;;;18.10;5.20;;;;;;;39.92;40.31;101219.59;4987743;28;20824;-69
2022/05/16 11:18:23;;;;;;;10.57;5.93;;;;;;;39.89;40.25;101212.03;5003507;28;20850;-69
2022/05/16 11:21:16;;;;;;;15.57;6.50;;;;;;;40.08;40.36;101220.78;5040533;28;20783;-69
2022/05/16 11:24:28;;;;;;;13.50;4.80;;;;;;;40.40;39.59;101216.16;5020391;28;20426;-68
2022/05/16 11:27:18;;;;;;;16.00;5.37;;;;;;;40.41;39.14;101218.53;5017257;28;20453;-70
2022/05/16 11:30:16;;;;;;;12.43;5.80;;;;;;;40.33;39.88;101202.19;5052420;28;20937;-68
2022/05/16 11:32:49;;;;;;;12.30;6.27;;;;;;;40.46;39.66;101201.28;4998885;28;20464;-69
2022/05/16 11:35:21;;;;;;;11.10;6.00;;;;;;;40.45;39.33;101197.75;5043398;28;20418;-68
2022/05/16 11:38:18;;;;;;;11.40;6.00;;;;;;;40.42;39.47;101192.94;5043805;28;20442;-68
2022/05/16 11:40:59;;;;;;;14.37;5.13;;;;;;;40.39;39.77;101195.50;5040102;28;20418;-68
2022/05/16 11:43:30;;;;;;;14.10;6.20;;;;;;;40.31;40.04;101190.84;5039692;28;20416;-69
2022/05/16 11:46:18;;;;;;;14.80;7.13;;;;;;;40.57;39.40;101186.28;5042116;28;20416;-68
2022/05/16 11:48:58;;;;;;;13.60;6.10;;;;;;;40.66;39.50;101187.13;5047532;28;21006;-69
2022/05/16 11:51:48;;;;;;;10.23;4.47;;;;;;;40.53;39.46;101182.63;5033808;28;20550;-71
2022/05/16 11:54:20;;;;;;;9.00;4.83;;;;;;;40.67;39.30;101183.28;5039817;28;21074;-69
2022/05/16 12:02:48;;;;;;;13.60;5.90;;;;;;;40.85;39.00;101162.34;5032884;28;20497;-71
2022/05/16 12:05:25;;;;;;;17.47;7.17;;;;;;;40.73;39.55;101162.16;5032238;28;21010;-69
2022/05/16 12:08:13;;;;;;;26.83;7.90;;;;;;;40.47;40.37;101162.94;5032087;28;20505;-69
2022/05/16 12:11:03;;;;;;;12.77;7.03;;;;;;;40.52;39.90;101156.56;5033444;28;20435;-69
2022/05/16 12:13:35;;;;;;;16.73;6.13;;;;;;;40.55;39.82;101148.53;5031983;28;20459;-69
2022/05/16 12:16:13;;;;;;;9.60;4.53;;;;;;;40.71;39.40;101150.81;5031239;28;20432;-71
2022/05/16 12:18:46;;;;;;;12.07;5.97;;;;;;;40.70;39.63;101152.75;5037056;28;20452;-70
2022/05/16 12:21:18;;;;;;;13.47;6.27;;;;;;;40.70;39.90;101150.03;5042764;28;20442;-69
2022/05/16 12:23:44;;;;;;;14.83;5.60;;;;;;;40.64;40.02;101145.84;5039514;28;21012;-69